createdAt,value
2023-02-14T00:02:02.231Z,7.60
2023-02-14T00:05:05.658Z,7.18
2023-02-14T00:08:09.920Z,8.45
2023-02-14T00:11:14.386Z,8.02
2023-02-14T00:14:35.642Z,8.02
2023-02-14T00:17:38.449Z,7.60
2023-02-14T00:20:41.291Z,8.38
2023-02-14T00:23:45.483Z,8.02
2023-02-14T00:26:48.660Z,8.07
2023-02-14T00:29:51.681Z,7.50
2023-02-14T00:32:54.526Z,7.03
2023-02-14T00:35:57.317Z,7.97
2023-02-14T00:39:03.080Z,7.68
2023-02-14T00:42:05.993Z,7.88
2023-02-14T00:45:09.597Z,7.20
2023-02-14T00:48:12.437Z,7.57
2023-02-14T00:51:16.258Z,7.22
2023-02-14T00:54:20.730Z,7.35
2023-02-14T00:57:25.603Z,6.88
2023-02-14T01:00:28.424Z,7.32
2023-02-14T01:03:31.699Z,7.63
2023-02-14T01:06:35.000Z,6.75
2023-02-14T01:09:39.226Z,7.05
2023-02-14T01:12:42.034Z,6.70
2023-02-14T01:15:47.123Z,6.18
2023-02-14T01:18:51.148Z,6.47
2023-02-14T01:21:54.003Z,7.30
2023-02-14T01:25:00.194Z,6.47
2023-02-14T01:28:05.835Z,6.45
2023-02-14T01:31:11.338Z,6.90
2023-02-14T01:34:14.261Z,6.45
2023-02-14T01:37:17.064Z,6.00
2023-02-14T01:40:21.474Z,6.97
2023-02-14T01:43:24.820Z,6.38
2023-02-14T01:46:30.090Z,6.68
2023-02-14T01:49:38.209Z,6.38
2023-02-14T01:52:47.232Z,6.80
2023-02-14T01:55:59.731Z,6.63
2023-02-14T01:59:07.345Z,6.47
2023-02-14T02:02:11.186Z,6.20
2023-02-14T02:05:16.268Z,5.85
2023-02-14T02:08:19.307Z,6.82
2023-02-14T02:11:23.564Z,5.97
2023-02-14T02:14:26.504Z,5.82
2023-02-14T02:17:39.233Z,6.00
2023-02-14T02:21:16.963Z,5.68
2023-02-14T02:24:27.980Z,6.05
2023-02-14T02:28:05.203Z,6.28
2023-02-14T02:31:27.961Z,5.93
2023-02-14T02:35:00.818Z,5.57
2023-02-14T02:38:19.521Z,5.55
2023-02-14T02:41:32.162Z,6.03
2023-02-14T02:44:45.902Z,5.85
2023-02-14T02:47:59.010Z,6.25
2023-02-14T02:51:25.718Z,5.00
2023-02-14T02:54:36.312Z,5.75
2023-02-14T02:57:42.113Z,5.65
2023-02-14T03:00:45.475Z,5.20
2023-02-14T03:04:10.376Z,5.95
2023-02-14T03:07:32.646Z,5.70
2023-02-14T03:10:39.054Z,5.35
2023-02-14T03:14:09.449Z,5.78
2023-02-14T03:17:23.437Z,5.50
2023-02-14T03:20:37.943Z,5.72
2023-02-14T03:23:47.450Z,5.47
2023-02-14T03:26:53.859Z,4.80
2023-02-14T03:30:02.478Z,5.13
2023-02-14T03:33:10.502Z,4.63
2023-02-14T03:36:19.407Z,4.68
2023-02-14T03:39:29.288Z,4.78
2023-02-14T03:42:36.760Z,5.20
2023-02-14T03:45:44.273Z,4.85
2023-02-14T03:48:49.504Z,5.00
2023-02-14T03:51:55.873Z,4.57
2023-02-14T03:55:02.417Z,4.32
2023-02-14T03:58:10.110Z,4.65
2023-02-14T04:01:17.207Z,4.45
2023-02-14T04:04:22.834Z,4.70
2023-02-14T04:07:26.119Z,4.65
2023-02-14T04:10:30.405Z,4.43
2023-02-14T04:13:33.801Z,4.50
2023-02-14T04:16:56.827Z,4.70
2023-02-14T04:19:58.706Z,4.47
2023-02-14T04:23:03.445Z,4.63
2023-02-14T04:26:07.954Z,4.25
2023-02-14T04:29:11.099Z,4.13
2023-02-14T04:32:17.958Z,3.92
2023-02-14T04:35:20.921Z,4.22
2023-02-14T04:38:24.081Z,4.68
2023-02-14T04:41:28.359Z,4.10
2023-02-14T04:44:31.604Z,4.20
2023-02-14T04:47:35.075Z,4.10
2023-02-14T04:50:37.994Z,4.25
2023-02-14T04:53:40.789Z,4.15
2023-02-14T04:56:44.999Z,3.75
2023-02-14T05:02:50.700Z,3.90
2023-02-14T05:05:53.523Z,3.17
2023-02-14T05:08:56.826Z,3.50
2023-02-14T05:12:00.998Z,4.00
2023-02-14T05:15:03.946Z,3.40
2023-02-14T05:18:06.834Z,3.63
2023-02-14T05:21:09.679Z,3.65
2023-02-14T05:24:12.673Z,3.50
2023-02-14T05:27:16.960Z,3.45
2023-02-14T05:30:22.410Z,3.30
2023-02-14T05:33:25.967Z,3.28
2023-02-14T05:36:29.275Z,3.05
2023-02-14T05:39:32.254Z,3.53
2023-02-14T05:42:36.580Z,3.60
2023-02-14T05:45:39.563Z,3.65
2023-02-14T05:48:42.458Z,3.35
2023-02-14T05:51:45.331Z,3.20
2023-02-14T05:54:48.240Z,3.22
2023-02-14T05:57:52.415Z,3.25
2023-02-14T06:00:55.289Z,3.50
2023-02-14T06:03:58.098Z,3.20
2023-02-14T06:07:01.149Z,3.20
2023-02-14T06:10:09.797Z,3.42
2023-02-14T06:13:14.125Z,3.60
2023-02-14T06:16:17.022Z,3.22
2023-02-14T06:19:20.021Z,3.38
2023-02-14T06:22:22.811Z,3.08
2023-02-14T06:25:26.486Z,2.95
2023-02-14T06:28:30.711Z,3.40
2023-02-14T06:31:33.803Z,3.13
2023-02-14T06:34:36.679Z,3.03
2023-02-14T06:37:41.191Z,3.53
2023-02-14T06:40:44.093Z,3.15
2023-02-14T06:43:49.632Z,2.80
2023-02-14T06:46:52.558Z,3.20
2023-02-14T06:49:55.420Z,3.00
2023-02-14T06:52:58.310Z,3.03
2023-02-14T06:56:01.170Z,3.05
2023-02-14T06:59:05.796Z,2.97
2023-02-14T07:02:11.050Z,2.92
2023-02-14T07:05:15.351Z,3.22
2023-02-14T07:08:18.497Z,3.13
2023-02-14T07:11:21.824Z,3.47
2023-02-14T07:14:26.162Z,3.10
2023-02-14T07:17:28.991Z,3.13
2023-02-14T07:20:31.862Z,3.17
2023-02-14T07:23:36.005Z,2.85
2023-02-14T07:26:39.207Z,2.97
2023-02-14T07:29:43.476Z,3.05
2023-02-14T07:32:46.343Z,3.80
2023-02-14T07:35:49.307Z,3.80
2023-02-14T07:38:52.256Z,4.05
2023-02-14T07:41:55.190Z,4.32
2023-02-14T07:45:20.652Z,4.10
2023-02-14T07:48:25.240Z,4.20
2023-02-14T07:51:28.278Z,3.88
2023-02-14T07:54:31.460Z,4.03
2023-02-14T07:57:34.507Z,4.03
2023-02-14T08:00:38.762Z,3.75
2023-02-14T08:03:44.387Z,4.72
2023-02-14T08:06:47.221Z,3.85
2023-02-14T08:09:50.080Z,4.18
2023-02-14T08:13:02.092Z,4.43
2023-02-14T08:16:07.475Z,4.50
2023-02-14T08:19:10.972Z,4.30
2023-02-14T08:22:13.831Z,4.45
2023-02-14T08:25:16.780Z,4.07
2023-02-14T08:28:21.897Z,4.28
2023-02-14T08:31:35.582Z,4.85
2023-02-14T08:34:39.065Z,4.93
2023-02-14T08:37:42.211Z,4.63
2023-02-14T08:40:45.428Z,4.93
2023-02-14T08:43:49.037Z,4.40
2023-02-14T08:46:53.424Z,4.88
2023-02-14T08:49:56.434Z,5.20
2023-02-14T08:52:59.607Z,5.05
2023-02-14T08:56:04.838Z,5.25
2023-02-14T08:59:08.148Z,5.60
2023-02-14T09:02:14.629Z,6.40
2023-02-14T09:05:17.732Z,5.88
2023-02-14T09:08:20.768Z,5.82
2023-02-14T09:11:25.946Z,5.90
2023-02-14T09:14:31.186Z,6.05
2023-02-14T09:17:36.638Z,7.55
2023-02-14T09:20:39.535Z,10.45
2023-02-14T09:23:42.605Z,24.88
2023-02-14T09:26:45.535Z,34.58
2023-02-14T09:29:48.709Z,38.45
2023-02-14T09:32:54.345Z,37.55
2023-02-14T09:36:16.324Z,36.90
2023-02-14T09:39:19.327Z,33.75
2023-02-14T09:42:38.017Z,33.17
2023-02-14T09:45:41.630Z,33.72
2023-02-14T09:48:48.453Z,32.92
2023-02-14T09:51:54.031Z,32.78
2023-02-14T09:55:01.060Z,32.75
2023-02-14T09:58:14.159Z,32.35
2023-02-14T10:01:23.224Z,30.58
2023-02-14T10:04:32.496Z,31.58
2023-02-14T10:07:48.302Z,32.17
2023-02-14T10:11:01.874Z,31.77
2023-02-14T10:14:09.942Z,31.92
2023-02-14T10:17:19.185Z,31.40
2023-02-14T10:20:29.024Z,30.88
2023-02-14T10:23:35.679Z,31.00
2023-02-14T10:26:41.333Z,30.42
2023-02-14T10:29:44.281Z,29.50
2023-02-14T10:32:49.961Z,30.92
2023-02-14T10:36:01.448Z,29.85
2023-02-14T10:39:13.810Z,30.10
2023-02-14T10:42:23.932Z,28.48
2023-02-14T10:45:35.375Z,29.58
2023-02-14T10:48:48.070Z,29.27
2023-02-14T10:51:58.266Z,29.27
2023-02-14T10:55:12.455Z,30.13
2023-02-14T10:58:20.847Z,27.50
2023-02-14T11:01:24.765Z,28.13
2023-02-14T11:04:29.040Z,28.15
2023-02-14T11:07:33.504Z,27.92
2023-02-14T11:10:36.401Z,28.08
2023-02-14T11:13:42.718Z,28.50
2023-02-14T11:16:45.565Z,28.60
2023-02-14T11:19:58.314Z,27.85
2023-02-14T11:23:02.579Z,26.98
2023-02-14T11:26:09.670Z,27.25
2023-02-14T11:29:16.226Z,27.52
2023-02-14T11:32:23.812Z,26.33
2023-02-14T11:35:34.398Z,26.70
2023-02-14T11:38:40.076Z,25.88
2023-02-14T11:41:51.174Z,24.73
2023-02-14T11:44:58.351Z,25.13
2023-02-14T11:48:38.327Z,25.70
2023-02-14T11:51:50.881Z,24.92
2023-02-14T11:55:05.259Z,23.77
2023-02-14T11:58:36.681Z,23.30
2023-02-14T12:01:45.557Z,23.83
2023-02-14T12:04:53.411Z,25.05
2023-02-14T12:07:57.949Z,23.98
2023-02-14T12:11:07.453Z,23.38
2023-02-14T12:14:22.771Z,23.55
2023-02-14T12:17:33.043Z,23.02
2023-02-14T12:20:42.051Z,23.17
2023-02-14T12:23:51.489Z,22.83
2023-02-14T12:27:03.576Z,23.52
2023-02-14T12:30:14.255Z,22.83
2023-02-14T12:33:21.145Z,22.08
2023-02-14T12:36:38.547Z,22.15
2023-02-14T12:39:55.741Z,21.92
2023-02-14T12:43:15.778Z,20.77
2023-02-14T12:47:00.206Z,21.27
2023-02-14T12:50:40.047Z,20.40
2023-02-14T12:54:01.237Z,20.02
2023-02-14T12:57:14.685Z,19.73
2023-02-14T13:00:30.565Z,20.83
2023-02-14T13:03:59.885Z,19.83
2023-02-14T13:07:13.444Z,19.23
2023-02-14T13:10:26.203Z,19.08
2023-02-14T13:13:41.584Z,18.48
2023-02-14T13:16:52.877Z,17.73
2023-02-14T13:20:04.536Z,15.88
2023-02-14T13:23:14.444Z,16.38
2023-02-14T13:26:20.307Z,15.50
2023-02-14T13:29:25.932Z,15.30
2023-02-14T13:32:34.402Z,15.52
2023-02-14T13:35:38.565Z,14.93
2023-02-14T13:38:45.763Z,14.10
2023-02-14T13:41:48.668Z,13.80
2023-02-14T13:44:52.754Z,14.35
2023-02-14T13:48:06.579Z,14.43
2023-02-14T13:51:11.377Z,13.55
2023-02-14T13:54:31.862Z,12.88
2023-02-14T13:57:36.650Z,12.73
2023-02-14T14:00:42.640Z,12.30
2023-02-14T14:03:58.372Z,13.30
2023-02-14T14:07:30.191Z,13.00
2023-02-14T14:10:44.767Z,13.18
2023-02-14T14:14:02.647Z,13.00
2023-02-14T14:17:27.639Z,12.07
2023-02-14T14:20:47.836Z,12.32
2023-02-14T14:24:06.917Z,12.57
2023-02-14T14:27:17.051Z,11.98
2023-02-14T14:30:25.220Z,11.88
2023-02-14T14:33:30.746Z,12.65
2023-02-14T14:36:35.439Z,12.07
2023-02-14T14:39:39.839Z,11.23
2023-02-14T14:42:43.845Z,11.02
2023-02-14T14:45:48.148Z,11.77
2023-02-14T14:48:55.521Z,10.85
2023-02-14T14:51:59.773Z,12.05
2023-02-14T14:55:04.281Z,11.98
2023-02-14T14:58:28.492Z,11.60
2023-02-14T15:01:38.181Z,11.77
2023-02-14T15:04:41.130Z,11.30
2023-02-14T15:07:45.418Z,11.30
2023-02-14T15:10:52.293Z,11.48
2023-02-14T15:13:54.208Z,11.82
2023-02-14T15:17:01.435Z,12.05
2023-02-14T15:20:08.240Z,11.27
2023-02-14T15:23:20.564Z,12.18
2023-02-14T15:26:31.916Z,11.10
2023-02-14T15:29:34.892Z,10.82
2023-02-14T15:32:39.267Z,11.45
2023-02-14T15:35:43.860Z,10.93
2023-02-14T15:38:48.464Z,11.15
2023-02-14T15:41:54.284Z,11.07
2023-02-14T15:45:22.357Z,10.07
2023-02-14T15:48:28.889Z,10.43
2023-02-14T15:51:36.321Z,10.63
2023-02-14T15:54:44.429Z,10.60
2023-02-14T15:57:55.235Z,10.45
2023-02-14T16:00:58.278Z,10.07
2023-02-14T16:04:03.549Z,10.02
2023-02-14T16:07:21.403Z,10.05
2023-02-14T16:10:27.022Z,10.85
2023-02-14T16:13:34.915Z,9.93
2023-02-14T16:17:02.325Z,9.35
2023-02-14T16:20:23.590Z,9.70
2023-02-14T16:23:28.672Z,10.18
2023-02-14T16:26:34.239Z,9.60
2023-02-14T16:29:38.499Z,9.93
2023-02-14T16:32:42.047Z,9.40
2023-02-14T16:35:45.932Z,9.60
2023-02-14T16:38:50.020Z,9.68
2023-02-14T16:41:57.357Z,10.00
2023-02-14T16:45:00.290Z,10.35
2023-02-14T16:48:03.326Z,10.02
2023-02-14T16:51:06.399Z,10.32
2023-02-14T16:54:13.894Z,10.27
2023-02-14T16:57:21.364Z,9.88
2023-02-14T17:00:25.981Z,10.25
2023-02-14T17:03:28.948Z,10.27
2023-02-14T17:06:35.218Z,9.30
2023-02-14T17:09:43.260Z,10.75
2023-02-14T17:12:49.821Z,9.27
2023-02-14T17:15:53.927Z,9.73
2023-02-14T17:18:56.897Z,10.00
2023-02-14T17:22:00.778Z,9.20
2023-02-14T17:25:03.735Z,10.00
2023-02-14T17:28:08.186Z,9.57
2023-02-14T17:31:11.834Z,9.65
2023-02-14T17:34:14.688Z,9.65
2023-02-14T17:37:18.881Z,9.90
2023-02-14T17:40:22.215Z,9.20
2023-02-14T17:43:26.508Z,9.93
2023-02-14T17:46:30.400Z,10.25
2023-02-14T17:49:33.434Z,10.23
2023-02-14T17:52:36.363Z,10.27
2023-02-14T17:55:39.147Z,10.27
2023-02-14T17:58:43.342Z,10.88
2023-02-14T18:01:46.352Z,10.02
2023-02-14T18:04:49.337Z,10.15
2023-02-14T18:07:52.481Z,10.52
2023-02-14T18:10:55.712Z,10.93
2023-02-14T18:14:01.658Z,10.27
2023-02-14T18:17:04.595Z,10.85
2023-02-14T18:20:11.987Z,10.75
2023-02-14T18:23:14.886Z,10.80
2023-02-14T18:26:19.159Z,11.27
2023-02-14T18:29:23.797Z,11.80
2023-02-14T18:32:26.750Z,11.35
2023-02-14T18:35:29.606Z,11.50
2023-02-14T18:38:32.538Z,11.52
2023-02-14T18:41:35.888Z,11.52
2023-02-14T18:44:40.167Z,12.65
2023-02-14T18:47:44.550Z,12.05
2023-02-14T18:50:47.482Z,11.43
2023-02-14T18:53:52.221Z,11.02
2023-02-14T18:56:55.170Z,12.18
2023-02-14T18:59:59.489Z,12.32
2023-02-14T19:03:02.485Z,12.60
2023-02-14T19:06:06.086Z,12.82
2023-02-14T19:09:12.015Z,12.25
2023-02-14T19:12:15.206Z,12.32
2023-02-14T19:15:20.904Z,12.23
2023-02-14T19:18:25.758Z,12.20
2023-02-14T19:21:30.756Z,13.18
2023-02-14T19:24:33.776Z,12.93
2023-02-14T19:27:37.020Z,13.15
2023-02-14T19:30:41.310Z,14.10
2023-02-14T19:33:46.312Z,13.13
2023-02-14T19:36:52.634Z,12.90
2023-02-14T19:39:55.535Z,14.00
2023-02-14T19:42:58.356Z,13.73
2023-02-14T19:46:05.034Z,13.98
2023-02-14T19:49:08.012Z,14.90
2023-02-14T19:52:25.773Z,14.07
2023-02-14T19:55:29.495Z,14.63
2023-02-14T19:58:32.360Z,14.25
2023-02-14T20:01:39.431Z,14.45
2023-02-14T20:04:42.500Z,15.57
2023-02-14T20:07:49.162Z,15.50
2023-02-14T20:10:52.071Z,15.80
2023-02-14T20:13:55.619Z,16.05
2023-02-14T20:17:02.243Z,15.65
2023-02-14T20:20:08.627Z,15.60
2023-02-14T20:23:11.500Z,15.73
2023-02-14T20:26:15.817Z,16.15
2023-02-14T20:29:19.695Z,15.05
2023-02-14T20:32:23.956Z,14.88
2023-02-14T20:35:26.913Z,14.75
2023-02-14T20:38:29.875Z,13.98
2023-02-14T20:41:34.464Z,14.05
2023-02-14T20:44:37.376Z,13.75
2023-02-14T20:47:41.619Z,14.63
2023-02-14T20:50:44.966Z,14.68
2023-02-14T20:53:48.324Z,14.55
2023-02-14T20:56:51.712Z,15.38
2023-02-14T20:59:54.565Z,15.65
2023-02-14T21:02:58.836Z,16.70
2023-02-14T21:06:01.673Z,15.27
2023-02-14T21:09:05.294Z,16.58
2023-02-14T21:12:08.655Z,16.33
2023-02-14T21:15:11.549Z,14.95
2023-02-14T21:18:15.879Z,15.77
2023-02-14T21:21:21.943Z,15.07
2023-02-14T21:24:25.141Z,14.93
2023-02-14T21:27:28.025Z,14.85
2023-02-14T21:30:32.562Z,14.35
2023-02-14T21:33:37.303Z,14.15
2023-02-14T21:36:40.291Z,14.98
2023-02-14T21:39:44.228Z,14.00
2023-02-14T21:42:47.174Z,14.40
2023-02-14T21:45:56.934Z,13.70
2023-02-14T21:49:20.090Z,14.40
2023-02-14T21:52:22.971Z,13.77
2023-02-14T21:55:25.788Z,13.75
2023-02-14T21:58:28.655Z,13.48
2023-02-14T22:01:33.608Z,14.00
2023-02-14T22:04:38.156Z,14.23
2023-02-14T22:07:41.071Z,13.38
2023-02-14T22:10:43.937Z,13.00
2023-02-14T22:13:46.862Z,13.15
2023-02-14T22:16:49.768Z,13.68
2023-02-14T22:19:54.014Z,12.90
2023-02-14T22:22:56.803Z,14.10
2023-02-14T22:26:09.139Z,12.68
2023-02-14T22:29:13.847Z,12.77
2023-02-14T22:32:16.787Z,12.05
2023-02-14T22:35:21.184Z,12.38
2023-02-14T22:38:24.203Z,13.38
2023-02-14T22:41:27.148Z,12.23
2023-02-14T22:44:30.082Z,11.80
2023-02-14T22:47:33.336Z,11.95
2023-02-14T22:50:37.644Z,13.15
2023-02-14T22:53:40.633Z,12.95
2023-02-14T22:56:45.291Z,12.20
2023-02-14T22:59:48.159Z,12.65
2023-02-14T23:02:51.038Z,12.18
2023-02-14T23:05:58.983Z,11.68
2023-02-14T23:09:03.043Z,11.60
2023-02-14T23:12:26.434Z,10.77
2023-02-14T23:15:48.953Z,10.93
2023-02-14T23:19:09.539Z,11.18
2023-02-14T23:22:15.996Z,11.52
2023-02-14T23:25:19.068Z,11.07
2023-02-14T23:28:21.944Z,10.77
2023-02-14T23:31:24.862Z,11.32
2023-02-14T23:34:28.008Z,10.20
2023-02-14T23:37:32.226Z,11.60
2023-02-14T23:40:55.327Z,10.23
2023-02-14T23:43:59.063Z,10.95
2023-02-14T23:47:04.234Z,11.65
2023-02-14T23:50:08.247Z,10.60
2023-02-14T23:53:15.293Z,10.20
2023-02-14T23:56:18.507Z,10.30
2023-02-14T23:59:22.693Z,10.13
